createdAt,value
2022-10-07T00:00:51.226Z,90.00
2022-10-07T00:03:19.041Z,89.90
2022-10-07T00:05:45.797Z,89.90
2022-10-07T00:08:12.711Z,89.70
2022-10-07T00:10:41.749Z,89.80
2022-10-07T00:13:09.994Z,89.90
2022-10-07T00:15:36.962Z,89.90
2022-10-07T00:18:03.906Z,90.00
2022-10-07T00:20:30.558Z,90.00
2022-10-07T00:22:57.246Z,90.60
2022-10-07T00:25:23.981Z,89.70
2022-10-07T00:27:50.729Z,89.80
2022-10-07T00:30:17.900Z,89.80
2022-10-07T00:32:44.730Z,89.90
2022-10-07T00:35:11.591Z,90.00
2022-10-07T00:37:43.200Z,89.80
2022-10-07T00:40:12.973Z,89.90
2022-10-07T00:42:40.551Z,89.90
2022-10-07T00:45:19.348Z,89.80
2022-10-07T00:47:48.963Z,89.90
2022-10-07T00:50:27.766Z,90.00
2022-10-07T00:52:59.247Z,89.90
2022-10-07T00:55:28.053Z,89.70
2022-10-07T00:57:59.081Z,89.70
2022-10-07T01:00:25.939Z,89.60
2022-10-07T01:02:52.738Z,89.60
2022-10-07T01:05:20.336Z,89.70
2022-10-07T01:07:50.014Z,89.90
2022-10-07T01:10:20.204Z,90.00
2022-10-07T01:13:10.308Z,90.20
2022-10-07T01:15:46.367Z,90.40
2022-10-07T01:18:23.149Z,90.50
2022-10-07T01:21:04.075Z,90.60
2022-10-07T01:24:04.516Z,90.60
2022-10-07T01:26:45.415Z,90.60
2022-10-07T01:29:14.117Z,90.80
2022-10-07T01:31:49.452Z,90.70
2022-10-07T01:34:17.632Z,90.60
2022-10-07T01:36:50.961Z,90.70
2022-10-07T01:39:22.527Z,90.90
2022-10-07T01:41:50.277Z,90.70
2022-10-07T01:44:17.427Z,90.80
2022-10-07T01:46:44.153Z,90.90
2022-10-07T01:49:10.786Z,90.60
2022-10-07T01:51:40.498Z,90.70
2022-10-07T01:54:39.515Z,90.60
2022-10-07T01:57:14.840Z,90.60
2022-10-07T02:00:10.014Z,90.30
2022-10-07T02:02:48.410Z,90.50
2022-10-07T02:05:52.674Z,90.50
2022-10-07T02:08:28.412Z,90.80
2022-10-07T02:11:03.955Z,90.80
2022-10-07T02:13:46.945Z,90.80
2022-10-07T02:16:18.689Z,90.80
2022-10-07T02:18:49.952Z,90.70
2022-10-07T02:21:21.943Z,90.70
2022-10-07T02:23:50.001Z,90.70
2022-10-07T02:26:20.935Z,90.60
2022-10-07T02:28:51.246Z,90.80
2022-10-07T02:31:22.657Z,90.90
2022-10-07T02:33:53.143Z,91.00
2022-10-07T02:36:49.253Z,90.90
2022-10-07T02:39:16.043Z,91.00
2022-10-07T02:41:54.903Z,91.20
2022-10-07T02:44:30.482Z,91.40
2022-10-07T02:47:20.265Z,91.30
2022-10-07T02:49:50.258Z,91.50
2022-10-07T02:52:19.594Z,91.20
2022-10-07T02:54:52.591Z,91.30
2022-10-07T02:57:20.507Z,91.00
2022-10-07T02:59:48.820Z,91.10
2022-10-07T03:02:32.436Z,91.10
2022-10-07T03:04:59.292Z,91.30
2022-10-07T03:07:27.031Z,91.00
2022-10-07T03:09:54.455Z,91.20
2022-10-07T03:12:21.143Z,91.10
2022-10-07T03:14:49.952Z,91.00
2022-10-07T03:17:18.035Z,91.10
2022-10-07T03:19:44.885Z,91.20
2022-10-07T03:22:12.263Z,91.30
2022-10-07T03:24:38.950Z,91.30
2022-10-07T03:27:08.931Z,91.30
2022-10-07T03:29:35.736Z,91.50
2022-10-07T03:32:02.477Z,91.50
2022-10-07T03:34:30.396Z,91.60
2022-10-07T03:36:57.451Z,91.60
2022-10-07T03:39:24.200Z,91.70
2022-10-07T03:41:52.198Z,91.60
2022-10-07T03:44:19.429Z,91.80
2022-10-07T03:46:50.346Z,91.90
2022-10-07T03:49:18.203Z,91.90
2022-10-07T03:51:44.853Z,91.90
2022-10-07T03:54:11.725Z,92.00
2022-10-07T03:56:38.435Z,92.10
2022-10-07T03:59:05.159Z,92.30
2022-10-07T04:01:32.068Z,92.50
2022-10-07T04:04:01.463Z,92.40
2022-10-07T04:06:29.407Z,92.40
2022-10-07T04:08:56.129Z,92.30
2022-10-07T04:11:24.264Z,92.20
2022-10-07T04:13:51.311Z,92.30
2022-10-07T04:16:18.762Z,92.40
2022-10-07T04:18:47.258Z,92.50
2022-10-07T04:21:13.927Z,92.50
2022-10-07T04:23:42.446Z,92.30
2022-10-07T04:26:10.768Z,92.30
2022-10-07T04:28:37.948Z,92.40
2022-10-07T04:31:06.930Z,92.40
2022-10-07T04:33:33.675Z,92.30
2022-10-07T04:36:05.409Z,92.20
2022-10-07T04:38:32.704Z,92.30
2022-10-07T04:41:02.754Z,92.30
2022-10-07T04:43:33.966Z,93.10
2022-10-07T04:46:03.832Z,92.40
2022-10-07T04:48:30.584Z,93.30
2022-10-07T04:51:05.140Z,92.50
2022-10-07T04:53:31.906Z,92.50
2022-10-07T04:55:59.787Z,92.60
2022-10-07T04:58:28.398Z,92.50
2022-10-07T05:00:58.718Z,92.40
2022-10-07T05:03:28.081Z,92.40
2022-10-07T05:06:05.201Z,92.60
2022-10-07T05:08:32.821Z,92.80
2022-10-07T05:11:00.982Z,92.80
2022-10-07T05:13:28.623Z,92.70
2022-10-07T05:16:00.137Z,92.90
2022-10-07T05:18:28.199Z,92.80
2022-10-07T05:20:55.503Z,92.80
2022-10-07T05:23:28.090Z,92.80
2022-10-07T05:26:05.028Z,92.90
2022-10-07T05:28:32.183Z,92.90
2022-10-07T05:31:06.191Z,92.90
2022-10-07T05:33:33.309Z,93.00
2022-10-07T05:36:00.507Z,93.10
2022-10-07T05:38:28.581Z,93.50
2022-10-07T05:40:58.589Z,93.30
2022-10-07T05:43:26.746Z,93.40
2022-10-07T05:46:04.732Z,93.40
2022-10-07T05:48:38.103Z,93.50
2022-10-07T05:51:07.678Z,93.70
2022-10-07T05:53:34.900Z,94.10
2022-10-07T05:56:09.633Z,94.20
2022-10-07T05:58:36.771Z,94.30
2022-10-07T06:01:09.994Z,94.40
2022-10-07T06:03:40.288Z,94.40
2022-10-07T06:06:07.147Z,94.50
2022-10-07T06:08:33.786Z,94.70
2022-10-07T06:11:22.641Z,94.70
2022-10-07T06:13:54.283Z,95.00
2022-10-07T06:16:21.467Z,94.90
2022-10-07T06:18:50.419Z,95.10
2022-10-07T06:21:17.284Z,95.30
2022-10-07T06:23:43.961Z,95.50
2022-10-07T06:26:14.131Z,96.40
2022-10-07T06:28:42.026Z,95.80
2022-10-07T06:31:25.029Z,96.00
2022-10-07T06:33:52.206Z,97.20
2022-10-07T06:36:18.933Z,96.70
2022-10-07T06:38:50.135Z,96.90
2022-10-07T06:41:17.644Z,97.10
2022-10-07T06:43:44.799Z,97.20
2022-10-07T06:46:15.278Z,97.10
2022-10-07T06:48:43.040Z,97.00
2022-10-07T06:51:13.691Z,97.20
2022-10-07T06:53:40.355Z,97.30
2022-10-07T06:56:07.044Z,97.60
2022-10-07T06:58:34.110Z,97.80
2022-10-07T07:01:01.187Z,98.00
2022-10-07T07:03:29.344Z,98.00
2022-10-07T07:05:56.725Z,98.20
2022-10-07T07:08:27.780Z,98.30
2022-10-07T07:10:55.132Z,98.20
2022-10-07T07:13:22.884Z,98.40
2022-10-07T07:15:57.604Z,98.30
2022-10-07T07:18:24.721Z,98.30
2022-10-07T07:20:51.760Z,98.40
2022-10-07T07:23:19.135Z,98.20
2022-10-07T07:25:46.300Z,97.70
2022-10-07T07:28:15.402Z,97.40
2022-10-07T07:30:42.414Z,96.80
2022-10-07T07:33:09.772Z,96.00
2022-10-07T07:35:41.367Z,95.30
2022-10-07T07:38:08.858Z,95.30
2022-10-07T07:40:39.631Z,95.40
2022-10-07T07:43:07.462Z,94.60
2022-10-07T07:45:37.681Z,93.10
2022-10-07T07:48:05.049Z,91.90
2022-10-07T07:50:31.755Z,88.80
2022-10-07T07:53:00.159Z,86.90
2022-10-07T07:55:26.918Z,87.10
2022-10-07T07:57:53.707Z,86.80
2022-10-07T08:00:20.410Z,86.90
2022-10-07T08:02:47.712Z,84.90
2022-10-07T08:05:14.517Z,83.90
2022-10-07T08:07:41.506Z,84.00
2022-10-07T08:10:08.591Z,81.40
2022-10-07T08:12:35.368Z,80.30
2022-10-07T08:15:02.056Z,79.40
2022-10-07T08:17:28.812Z,79.00
2022-10-07T08:19:56.155Z,76.60
2022-10-07T08:22:22.844Z,77.30
2022-10-07T08:24:49.457Z,76.50
2022-10-07T08:27:16.113Z,75.10
2022-10-07T08:29:42.806Z,75.00
2022-10-07T08:32:10.738Z,73.10
2022-10-07T08:34:37.325Z,72.20
2022-10-07T08:37:03.962Z,71.70
2022-10-07T08:39:31.215Z,72.00
2022-10-07T08:42:04.109Z,69.40
2022-10-07T08:44:36.925Z,69.10
2022-10-07T08:47:11.207Z,69.50
2022-10-07T08:49:43.564Z,69.80
2022-10-07T08:52:28.299Z,69.50
2022-10-07T08:54:55.293Z,69.30
2022-10-07T08:57:48.378Z,67.80
2022-10-07T09:00:20.327Z,67.90
2022-10-07T09:03:25.321Z,66.50
2022-10-07T09:05:53.874Z,64.90
2022-10-07T09:08:28.756Z,62.60
2022-10-07T09:11:02.446Z,60.60
2022-10-07T09:13:35.672Z,59.00
2022-10-07T09:16:11.958Z,57.00
2022-10-07T09:18:53.393Z,56.50
2022-10-07T09:21:23.674Z,55.70
2022-10-07T09:24:02.242Z,55.00
2022-10-07T09:26:29.279Z,53.00
2022-10-07T09:28:55.982Z,51.40
2022-10-07T09:31:24.790Z,48.90
2022-10-07T09:33:53.026Z,49.00
2022-10-07T09:36:20.121Z,49.20
2022-10-07T09:38:49.950Z,48.80
2022-10-07T09:41:35.977Z,49.90
2022-10-07T09:44:27.232Z,46.60
2022-10-07T09:47:17.093Z,46.90
2022-10-07T09:49:46.261Z,47.40
2022-10-07T09:52:23.169Z,46.60
2022-10-07T09:54:52.916Z,45.30
2022-10-07T09:57:35.172Z,44.70
2022-10-07T10:00:20.822Z,45.80
2022-10-07T10:02:54.196Z,46.20
2022-10-07T10:05:27.078Z,43.80
2022-10-07T10:07:57.385Z,44.60
2022-10-07T10:10:27.606Z,43.10
2022-10-07T10:12:57.202Z,44.90
2022-10-07T10:15:23.822Z,43.90
2022-10-07T10:17:51.127Z,44.80
2022-10-07T10:20:23.797Z,42.50
2022-10-07T10:22:51.763Z,44.20
2022-10-07T10:25:46.149Z,41.70
2022-10-07T10:28:38.343Z,44.30
2022-10-07T10:31:20.842Z,41.20
2022-10-07T10:34:10.136Z,42.00
2022-10-07T10:36:42.255Z,43.80
2022-10-07T10:39:27.502Z,41.90
2022-10-07T10:42:01.399Z,44.00
2022-10-07T10:44:37.527Z,39.20
2022-10-07T10:47:38.275Z,40.60
2022-10-07T10:50:27.431Z,37.80
2022-10-07T10:53:19.893Z,36.90
2022-10-07T10:56:01.983Z,37.90
2022-10-07T10:58:48.125Z,35.80
2022-10-07T11:01:21.163Z,36.30
2022-10-07T11:04:18.726Z,37.50
2022-10-07T11:06:54.724Z,36.10
2022-10-07T11:09:43.414Z,35.40
2022-10-07T11:12:22.194Z,35.60
2022-10-07T11:14:57.928Z,36.10
2022-10-07T11:17:30.767Z,37.50
2022-10-07T11:20:20.696Z,37.30
2022-10-07T11:23:20.033Z,36.10
2022-10-07T11:26:18.782Z,35.50
2022-10-07T11:28:48.792Z,36.50
2022-10-07T11:31:27.670Z,36.80
2022-10-07T11:34:10.365Z,36.80
2022-10-07T11:37:06.204Z,36.10
2022-10-07T11:39:38.184Z,36.50
2022-10-07T11:42:31.449Z,35.00
2022-10-07T11:45:08.151Z,35.70
2022-10-07T11:47:47.941Z,34.60
2022-10-07T11:50:32.350Z,35.70
2022-10-07T11:53:09.688Z,34.40
2022-10-07T11:55:55.070Z,35.60
2022-10-07T11:58:29.332Z,35.00
2022-10-07T12:01:30.611Z,34.30
2022-10-07T12:04:16.168Z,34.40
2022-10-07T12:07:20.594Z,36.20
2022-10-07T12:09:59.441Z,35.30
2022-10-07T12:12:50.690Z,36.90
2022-10-07T12:15:23.368Z,35.90
2022-10-07T12:18:18.851Z,38.20
2022-10-07T12:20:52.837Z,36.30
2022-10-07T12:23:22.645Z,36.70
2022-10-07T12:25:55.921Z,34.90
2022-10-07T12:28:46.020Z,35.20
2022-10-07T12:31:15.737Z,36.50
2022-10-07T12:33:45.734Z,34.10
2022-10-07T12:36:21.448Z,37.30
2022-10-07T12:39:09.607Z,35.30
2022-10-07T12:41:39.964Z,33.90
2022-10-07T12:44:32.623Z,34.40
2022-10-07T12:47:30.667Z,35.10
2022-10-07T12:50:10.980Z,33.80
2022-10-07T12:53:01.099Z,34.00
2022-10-07T12:55:40.968Z,34.00
2022-10-07T12:58:56.569Z,34.70
2022-10-07T13:01:53.110Z,31.40
2022-10-07T13:04:58.523Z,32.70
2022-10-07T13:08:00.095Z,32.30
2022-10-07T13:10:51.299Z,31.50
2022-10-07T13:13:49.747Z,30.80
2022-10-07T13:16:45.766Z,29.60
2022-10-07T13:19:41.325Z,29.80
2022-10-07T13:22:16.912Z,30.30
2022-10-07T13:24:49.911Z,29.00
2022-10-07T13:27:28.736Z,28.90
2022-10-07T13:29:57.483Z,27.90
2022-10-07T13:32:30.288Z,30.30
2022-10-07T13:35:20.527Z,30.90
2022-10-07T13:37:48.105Z,29.50
2022-10-07T13:40:41.095Z,29.50
2022-10-07T13:43:09.133Z,27.40
2022-10-07T13:45:45.134Z,28.10
2022-10-07T13:48:18.035Z,28.60
2022-10-07T13:50:45.723Z,27.20
2022-10-07T13:53:26.691Z,26.40
2022-10-07T13:56:09.008Z,27.10
2022-10-07T13:58:37.412Z,27.10
2022-10-07T14:01:05.573Z,26.80
2022-10-07T14:03:32.896Z,27.50
2022-10-07T14:05:59.813Z,27.40
2022-10-07T14:08:28.225Z,26.80
2022-10-07T14:11:16.367Z,25.90
2022-10-07T14:13:43.350Z,25.60
2022-10-07T14:16:22.120Z,25.70
2022-10-07T14:18:49.318Z,25.90
2022-10-07T14:21:17.453Z,25.40
2022-10-07T14:23:46.971Z,24.90
2022-10-07T14:26:17.957Z,26.60
2022-10-07T14:28:45.098Z,24.80
2022-10-07T14:31:38.124Z,25.90
2022-10-07T14:34:36.167Z,26.30
2022-10-07T14:37:08.571Z,25.60
2022-10-07T14:39:39.544Z,26.80
2022-10-07T14:42:11.674Z,26.90
2022-10-07T14:44:38.561Z,27.70
2022-10-07T14:47:12.773Z,26.60
2022-10-07T14:49:43.294Z,27.50
2022-10-07T14:52:24.126Z,27.80
2022-10-07T14:54:52.770Z,28.20
2022-10-07T14:57:19.456Z,28.40
2022-10-07T14:59:49.959Z,28.00
2022-10-07T15:02:17.252Z,28.50
2022-10-07T15:04:45.509Z,28.10
2022-10-07T15:07:13.449Z,29.20
2022-10-07T15:09:41.011Z,30.20
2022-10-07T15:12:10.475Z,29.70
2022-10-07T15:14:37.143Z,29.60
2022-10-07T15:17:04.101Z,29.60
2022-10-07T15:19:30.778Z,30.40
2022-10-07T15:21:57.540Z,31.60
2022-10-07T15:24:24.265Z,32.20
2022-10-07T15:26:51.089Z,31.60
2022-10-07T15:29:17.910Z,31.50
2022-10-07T15:31:44.578Z,32.40
2022-10-07T15:34:13.237Z,32.90
2022-10-07T15:36:40.366Z,33.40
2022-10-07T15:39:08.149Z,34.60
2022-10-07T15:41:42.345Z,33.90
2022-10-07T15:44:17.865Z,34.30
2022-10-07T15:46:46.043Z,34.00
2022-10-07T15:49:13.391Z,34.00
2022-10-07T15:51:40.315Z,33.90
2022-10-07T15:54:07.459Z,34.80
2022-10-07T15:56:34.496Z,35.10
2022-10-07T15:59:02.108Z,36.80
2022-10-07T16:01:32.137Z,37.40
2022-10-07T16:04:01.174Z,36.10
2022-10-07T16:06:34.067Z,36.40
2022-10-07T16:09:01.607Z,36.30
2022-10-07T16:11:30.134Z,37.00
2022-10-07T16:13:58.657Z,36.70
2022-10-07T16:16:27.095Z,38.00
2022-10-07T16:18:57.384Z,39.10
2022-10-07T16:21:43.277Z,38.90
2022-10-07T16:24:32.516Z,38.90
2022-10-07T16:27:01.606Z,39.90
2022-10-07T16:29:46.944Z,40.10
2022-10-07T16:32:13.808Z,41.40
2022-10-07T16:34:44.478Z,41.70
2022-10-07T16:37:12.852Z,43.40
2022-10-07T16:39:39.543Z,43.80
2022-10-07T16:42:06.363Z,44.30
2022-10-07T16:44:33.114Z,45.40
2022-10-07T16:47:01.161Z,46.30
2022-10-07T16:49:30.238Z,47.70
2022-10-07T16:51:57.868Z,48.20
2022-10-07T16:54:25.430Z,49.30
2022-10-07T16:56:52.791Z,50.00
2022-10-07T16:59:23.607Z,50.50
2022-10-07T17:01:52.908Z,50.90
2022-10-07T17:04:19.919Z,51.20
2022-10-07T17:06:47.356Z,51.50
2022-10-07T17:09:14.284Z,52.20
2022-10-07T17:11:41.655Z,52.90
2022-10-07T17:14:16.898Z,53.70
2022-10-07T17:16:46.454Z,53.90
2022-10-07T17:19:18.126Z,54.50
2022-10-07T17:21:46.262Z,55.30
2022-10-07T17:24:14.332Z,54.90
2022-10-07T17:26:41.339Z,55.10
2022-10-07T17:29:10.895Z,54.80
2022-10-07T17:31:39.721Z,54.80
2022-10-07T17:34:07.282Z,55.20
2022-10-07T17:36:35.579Z,54.40
2022-10-07T17:39:02.614Z,54.60
2022-10-07T17:41:35.095Z,54.50
2022-10-07T17:44:04.145Z,55.10
2022-10-07T17:46:33.202Z,54.20
2022-10-07T17:49:01.653Z,54.60
2022-10-07T17:51:31.307Z,54.40
2022-10-07T17:54:03.396Z,54.50
2022-10-07T17:56:32.089Z,54.70
2022-10-07T17:58:59.182Z,55.10
2022-10-07T18:01:28.509Z,55.20
2022-10-07T18:03:57.683Z,55.40
2022-10-07T18:06:30.459Z,55.70
2022-10-07T18:09:03.166Z,55.30
2022-10-07T18:11:48.974Z,55.10
2022-10-07T18:14:34.497Z,55.10
2022-10-07T18:17:01.442Z,55.50
2022-10-07T18:19:29.531Z,54.90
2022-10-07T18:21:56.507Z,54.80
2022-10-07T18:24:28.829Z,54.70
2022-10-07T18:26:58.804Z,54.80
2022-10-07T18:29:30.724Z,55.10
2022-10-07T18:31:57.431Z,55.60
2022-10-07T18:34:24.916Z,56.00
2022-10-07T18:36:56.229Z,56.50
2022-10-07T18:39:23.556Z,56.80
2022-10-07T18:41:50.860Z,57.10
2022-10-07T18:44:17.505Z,57.70
2022-10-07T18:46:44.143Z,58.00
2022-10-07T18:49:13.798Z,58.90
2022-10-07T18:51:41.192Z,59.40
2022-10-07T18:54:08.176Z,60.30
2022-10-07T18:56:40.573Z,61.00
2022-10-07T18:59:07.991Z,62.80
2022-10-07T19:01:34.837Z,62.80
2022-10-07T19:04:03.089Z,62.90
2022-10-07T19:06:32.106Z,63.70
2022-10-07T19:09:01.990Z,63.70
2022-10-07T19:11:31.583Z,63.50
2022-10-07T19:13:59.364Z,63.90
2022-10-07T19:16:41.163Z,63.60
2022-10-07T19:19:17.144Z,64.20
2022-10-07T19:21:48.704Z,64.60
2022-10-07T19:24:16.538Z,64.90
2022-10-07T19:26:46.025Z,65.20
2022-10-07T19:29:15.233Z,65.70
2022-10-07T19:31:48.491Z,65.90
2022-10-07T19:34:18.836Z,66.70
2022-10-07T19:36:47.170Z,66.90
2022-10-07T19:39:20.002Z,67.20
2022-10-07T19:41:46.779Z,67.90
2022-10-07T19:44:14.205Z,68.20
2022-10-07T19:46:41.486Z,68.50
2022-10-07T19:49:09.404Z,69.60
2022-10-07T19:51:37.095Z,70.50
2022-10-07T19:54:09.808Z,70.60
2022-10-07T19:56:37.437Z,71.30
2022-10-07T19:59:07.195Z,71.70
2022-10-07T20:01:37.057Z,71.90
2022-10-07T20:04:21.784Z,72.20
2022-10-07T20:06:48.930Z,73.10
2022-10-07T20:09:17.608Z,74.00
2022-10-07T20:11:45.515Z,74.60
2022-10-07T20:14:13.565Z,75.50
2022-10-07T20:16:40.308Z,75.90
2022-10-07T20:19:11.128Z,76.50
2022-10-07T20:21:39.228Z,76.80
2022-10-07T20:24:07.501Z,77.00
2022-10-07T20:26:37.320Z,78.90
2022-10-07T20:29:05.869Z,79.40
2022-10-07T20:31:34.986Z,79.60
2022-10-07T20:34:02.760Z,79.60
2022-10-07T20:36:31.731Z,79.90
2022-10-07T20:39:23.142Z,79.90
2022-10-07T20:42:09.620Z,80.00
2022-10-07T20:44:39.400Z,79.90
2022-10-07T20:47:08.051Z,80.40
2022-10-07T20:49:37.222Z,80.60
2022-10-07T20:52:06.968Z,81.20
2022-10-07T20:54:33.714Z,81.80
2022-10-07T20:57:00.826Z,82.80
2022-10-07T20:59:29.017Z,83.50
2022-10-07T21:01:56.427Z,84.30
2022-10-07T21:04:27.140Z,84.20
2022-10-07T21:06:57.195Z,84.40
2022-10-07T21:09:24.890Z,84.50
2022-10-07T21:11:52.030Z,84.20
2022-10-07T21:14:19.284Z,84.10
2022-10-07T21:16:47.065Z,84.00
2022-10-07T21:19:14.943Z,83.80
2022-10-07T21:21:41.752Z,83.60
2022-10-07T21:24:08.697Z,83.30
2022-10-07T21:26:36.415Z,83.60
2022-10-07T21:29:05.032Z,83.80
2022-10-07T21:31:31.727Z,84.20
2022-10-07T21:34:01.558Z,84.80
2022-10-07T21:36:28.402Z,85.10
2022-10-07T21:38:58.292Z,85.20
2022-10-07T21:41:27.852Z,85.50
2022-10-07T21:43:56.986Z,86.00
2022-10-07T21:46:25.241Z,86.30
2022-10-07T21:48:54.173Z,86.30
2022-10-07T21:51:22.217Z,86.50
2022-10-07T21:53:53.467Z,86.70
2022-10-07T21:56:21.212Z,86.70
2022-10-07T21:58:49.452Z,86.80
2022-10-07T22:01:18.528Z,86.80
2022-10-07T22:03:46.235Z,86.80
2022-10-07T22:06:15.271Z,86.70
2022-10-07T22:08:45.088Z,86.80
2022-10-07T22:11:14.399Z,86.90
2022-10-07T22:13:46.429Z,86.90
2022-10-07T22:16:17.867Z,87.00
2022-10-07T22:18:49.502Z,87.50
2022-10-07T22:21:19.249Z,87.80
2022-10-07T22:23:52.862Z,88.10
2022-10-07T22:26:21.678Z,88.20
2022-10-07T22:28:48.366Z,88.30
2022-10-07T22:31:15.563Z,88.20
2022-10-07T22:33:43.801Z,88.50
2022-10-07T22:36:13.135Z,88.70
2022-10-07T22:38:43.107Z,89.00
2022-10-07T22:41:14.614Z,89.50
2022-10-07T22:43:46.118Z,90.10
2022-10-07T22:46:15.454Z,90.30
2022-10-07T22:48:48.545Z,90.30
2022-10-07T22:51:16.216Z,90.50
2022-10-07T22:53:46.525Z,92.00
2022-10-07T22:56:15.372Z,93.40
2022-10-07T22:58:44.039Z,94.10
2022-10-07T23:01:15.770Z,95.10
2022-10-07T23:03:44.065Z,94.70
2022-10-07T23:06:13.094Z,94.50
2022-10-07T23:08:39.913Z,94.10
2022-10-07T23:11:07.665Z,93.80
2022-10-07T23:13:36.384Z,93.70
2022-10-07T23:16:11.193Z,93.70
2022-10-07T23:18:39.507Z,94.60
2022-10-07T23:21:12.192Z,94.50
2022-10-07T23:23:41.167Z,94.20
2022-10-07T23:26:13.485Z,94.00
2022-10-07T23:28:40.438Z,93.80
2022-10-07T23:31:08.858Z,93.70
2022-10-07T23:33:36.485Z,93.50
2022-10-07T23:36:05.716Z,93.60
2022-10-07T23:38:33.556Z,93.70
2022-10-07T23:41:03.394Z,93.70
2022-10-07T23:43:33.216Z,93.80
2022-10-07T23:46:01.114Z,94.00
2022-10-07T23:48:27.902Z,93.90
2022-10-07T23:50:55.233Z,93.90
2022-10-07T23:53:22.556Z,94.00
2022-10-07T23:55:52.106Z,94.00
2022-10-07T23:58:21.110Z,94.20
